Time;durP1;ratioP1;P1;durP2;ratioP2;P2;SDS_P1;SDS_P2;PMS_P1;PMS_P2;Temp;Humidity;BMP_temperature;BMP_pressure;BME280_temperature;BME280_humidity;BME280_pressure;Samples;Min_cycle;Max_cycle;Signal;HPM_P1;HPM_P2
2022/08/08 00:02:18;;;;;;;10.65;5.68;;;;;;;;;;4992572;28;98495;-73
2022/08/08 00:04:58;;;;;;;;;;;;;;;;;;4991243;28;100282;-73
2022/08/08 00:07:32;;;;;;;9.40;5.57;;;;;;;;;;4992547;28;128976;-73
2022/08/08 00:10:32;;;;;;;7.97;5.28;;;;;;;;;;4993132;28;98488;-73
2022/08/08 00:13:06;;;;;;;5.70;4.63;;;;;;;;;;4984547;28;101209;-73
2022/08/08 00:15:42;;;;;;;8.27;4.35;;;;;;;;;;4991970;28;98499;-73
2022/08/08 00:18:27;;;;;;;5.35;4.78;;;;;;;;;;4992510;28;99214;-73
2022/08/08 00:20:56;;;;;;;6.57;5.10;;;;;;;;;;4995950;28;100180;-72
2022/08/08 00:23:34;;;;;;;6.63;5.40;;;;;;;;;;5012519;28;97774;-73
2022/08/08 00:26:15;;;;;;;7.60;6.80;;;;;;;;;;5012773;28;99209;-73
2022/08/08 00:28:58;;;;;;;8.55;5.50;;;;;;;;;;5012316;28;99487;-73
2022/08/08 00:31:33;;;;;;;6.97;5.80;;;;;;;;;;5002706;28;99296;-72
2022/08/08 00:37:30;;;;;;;10.90;5.57;;;;;;;;;;4996693;28;99272;-73
2022/08/08 00:40:35;;;;;;;9.65;6.00;;;;;;;;;;5012569;28;98846;-72
2022/08/08 00:43:41;;;;;;;7.30;5.70;;;;;;;;;;5011889;28;99236;-73
2022/08/08 00:46:43;;;;;;;9.73;5.45;;;;;;;;;;5010977;28;98577;-73
2022/08/08 00:49:32;;;;;;;6.20;5.00;;;;;;;;;;4971503;28;99786;-73
2022/08/08 00:52:05;;;;;;;6.10;4.90;;;;;;;;;;4971671;28;98418;-73
2022/08/08 00:54:41;;;;;;;7.95;6.60;;;;;;;;;;4975334;28;99009;-73
2022/08/08 00:57:32;;;;;;;5.95;5.45;;;;;;;;;;4990990;28;99236;-73
2022/08/08 01:00:08;;;;;;;12.02;6.10;;;;;;;;;;4989900;28;102325;-74
2022/08/08 01:03:01;;;;;;;6.72;5.95;;;;;;;;;;4992938;28;98643;-73
2022/08/08 01:05:54;;;;;;;7.07;6.05;;;;;;;;;;4990284;28;100092;-73
2022/08/08 01:08:57;;;;;;;8.98;6.47;;;;;;;;;;4991272;28;98589;-73
2022/08/08 01:11:44;;;;;;;7.05;6.40;;;;;;;;;;4991404;28;99126;-73
2022/08/08 01:14:24;;;;;;;8.50;6.22;;;;;;;;;;4990720;28;100344;-73
2022/08/08 01:17:16;;;;;;;6.68;6.05;;;;;;;;;;4989122;28;100596;-73
2022/08/08 01:20:03;;;;;;;7.50;6.32;;;;;;;;;;4990699;28;99990;-73
2022/08/08 01:22:34;;;;;;;12.05;7.50;;;;;;;;;;5007135;28;99308;-73
2022/08/08 01:25:24;;;;;;;8.65;7.20;;;;;;;;;;4990178;28;98634;-73
2022/08/08 01:28:01;;;;;;;10.52;8.35;;;;;;;;;;4992694;28;99283;-73
2022/08/08 01:30:56;;;;;;;8.73;7.85;;;;;;;;;;5008738;28;98649;-73
2022/08/08 01:33:25;;;;;;;11.82;7.53;;;;;;;;;;4996187;28;98925;-73
2022/08/08 01:36:08;;;;;;;;;;;;;;;;;;5011687;28;100152;-73
2022/08/08 01:38:35;;;;;;;8.98;7.22;;;;;;;;;;5027505;28;98545;-73
2022/08/08 01:41:22;;;;;;;10.20;8.05;;;;;;;;;;5010116;28;101125;-73
2022/08/08 01:44:25;;;;;;;8.27;7.47;;;;;;;;;;5008539;28;102085;-72
2022/08/08 01:46:52;;;;;;;14.13;7.68;;;;;;;;;;4936083;28;98576;-73
2022/08/08 01:49:44;;;;;;;10.70;7.78;;;;;;;;;;5003784;28;100435;-73
2022/08/08 01:52:14;;;;;;;8.57;7.68;;;;;;;;;;5009084;28;98647;-73
2022/08/08 01:55:10;;;;;;;10.02;6.68;;;;;;;;;;5010382;28;99218;-72
2022/08/08 01:58:13;;;;;;;9.63;7.40;;;;;;;;;;5010547;28;99483;-73
2022/08/08 02:00:42;;;;;;;8.40;7.70;;;;;;;;;;5009707;28;98760;-73
2022/08/08 02:03:15;;;;;;;9.70;8.65;;;;;;;;;;5009115;28;99400;-73
2022/08/08 02:06:12;;;;;;;8.23;7.47;;;;;;;;;;5008743;28;99346;-72
2022/08/08 02:09:05;;;;;;;8.85;7.95;;;;;;;;;;4998567;28;98515;-73
2022/08/08 02:11:46;;;;;;;7.85;7.25;;;;;;;;;;4989512;28;99945;-73
2022/08/08 02:14:35;;;;;;;8.02;7.30;;;;;;;;;;5026335;28;100505;-73
2022/08/08 02:17:28;;;;;;;8.77;7.78;;;;;;;;;;4990080;28;101324;-73
2022/08/08 02:20:22;;;;;;;9.52;7.00;;;;;;;;;;5021601;28;101368;-73
2022/08/08 02:23:30;;;;;;;7.88;7.00;;;;;;;;;;4990932;28;99259;-73
2022/08/08 02:26:19;;;;;;;9.25;7.60;;;;;;;;;;4989373;28;102258;-73
2022/08/08 02:28:59;;;;;;;7.72;6.95;;;;;;;;;;5005384;28;100240;-73
2022/08/08 02:31:39;;;;;;;7.43;6.13;;;;;;;;;;4989401;28;98605;-73
2022/08/08 02:34:45;;;;;;;7.53;6.28;;;;;;;;;;4989315;28;99145;-74
2022/08/08 02:37:54;;;;;;;13.20;6.45;;;;;;;;;;5009798;28;99333;-73
2022/08/08 02:40:38;;;;;;;8.30;7.60;;;;;;;;;;4996075;28;98639;-73
2022/08/08 02:43:26;;;;;;;8.98;7.70;;;;;;;;;;4992704;28;101172;-73
2022/08/08 02:46:24;;;;;;;8.02;6.93;;;;;;;;;;4994756;28;98416;-73
2022/08/08 02:48:59;;;;;;;8.10;6.88;;;;;;;;;;4990798;28;99761;-73
2022/08/08 02:51:44;;;;;;;8.45;7.47;;;;;;;;;;4993082;28;99677;-73
2022/08/08 02:54:33;;;;;;;8.52;7.50;;;;;;;;;;5009282;28;98645;-73
2022/08/08 02:57:21;;;;;;;8.50;6.85;;;;;;;;;;4992610;28;101114;-73
2022/08/08 03:00:09;;;;;;;12.30;7.15;;;;;;;;;;4991994;28;102368;-73
2022/08/08 03:03:16;;;;;;;16.15;7.15;;;;;;;;;;4991110;28;99325;-73
2022/08/08 03:06:15;;;;;;;7.90;7.22;;;;;;;;;;4997193;28;98682;-73
2022/08/08 03:09:21;;;;;;;8.60;6.93;;;;;;;;;;5000110;28;98685;-73
2022/08/08 03:11:53;;;;;;;9.20;6.75;;;;;;;;;;4992743;28;99424;-73
2022/08/08 03:14:55;;;;;;;9.55;7.20;;;;;;;;;;4991431;28;99264;-73
2022/08/08 03:17:50;;;;;;;12.68;7.90;;;;;;;;;;5008537;28;98598;-73
2022/08/08 03:20:43;;;;;;;7.93;7.20;;;;;;;;;;4991723;28;99149;-73
2022/08/08 03:23:21;;;;;;;9.15;6.93;;;;;;;;;;4991576;28;101210;-73
2022/08/08 03:25:49;;;;;;;11.35;7.55;;;;;;;;;;4991944;28;98529;-73
2022/08/08 03:28:23;;;;;;;7.55;6.78;;;;;;;;;;4993186;28;98966;-73
2022/08/08 03:30:52;;;;;;;9.70;6.82;;;;;;;;;;4995289;28;101481;-73
2022/08/08 03:33:39;;;;;;;8.10;7.32;;;;;;;;;;4993196;28;101111;-73
2022/08/08 03:36:26;;;;;;;8.18;7.20;;;;;;;;;;4991975;28;102059;-73
2022/08/08 03:38:58;;;;;;;10.80;7.90;;;;;;;;;;4995592;28;97730;-74
2022/08/08 03:41:44;;;;;;;9.73;8.27;;;;;;;;;;4992259;28;98633;-73
2022/08/08 03:44:34;;;;;;;8.60;7.70;;;;;;;;;;4991494;28;99358;-73
2022/08/08 03:47:06;;;;;;;9.10;8.00;;;;;;;;;;5024174;27;99381;-73
2022/08/08 03:49:49;;;;;;;9.50;8.15;;;;;;;;;;4991339;28;99890;-73
2022/08/08 03:52:30;;;;;;;10.52;9.02;;;;;;;;;;4989715;28;101195;-73
2022/08/08 03:55:01;;;;;;;11.38;9.63;;;;;;;;;;4994562;28;98479;-72
2022/08/08 03:57:36;;;;;;;15.27;9.25;;;;;;;;;;4989197;28;101326;-73
2022/08/08 04:00:28;;;;;;;10.90;8.93;;;;;;;;;;4992940;28;98574;-73
2022/08/08 04:03:03;;;;;;;12.57;8.65;;;;;;;;;;4993857;28;98931;-73
2022/08/08 04:05:37;;;;;;;13.00;9.57;;;;;;;;;;4990510;28;101698;-73
2022/08/08 04:08:22;;;;;;;11.85;9.32;;;;;;;;;;4996525;28;98655;-73
2022/08/08 04:11:03;;;;;;;11.02;8.95;;;;;;;;;;5011658;28;101060;-73
2022/08/08 04:13:37;;;;;;;11.18;9.98;;;;;;;;;;5009924;28;102140;-73
2022/08/08 04:16:27;;;;;;;12.05;8.60;;;;;;;;;;5021478;27;98581;-73
2022/08/08 04:19:08;;;;;;;13.38;9.70;;;;;;;;;;4986406;28;99848;-72
2022/08/08 04:21:50;;;;;;;12.83;10.10;;;;;;;;;;5011267;28;98755;-73
2022/08/08 04:24:16;;;;;;;15.93;11.63;;;;;;;;;;5010722;28;101546;-72
2022/08/08 04:26:56;;;;;;;12.23;11.10;;;;;;;;;;5009178;28;101419;-72
2022/08/08 04:29:26;;;;;;;16.17;10.90;;;;;;;;;;5010520;28;98649;-72
2022/08/08 04:32:04;;;;;;;11.85;10.55;;;;;;;;;;5010883;28;101458;-72
2022/08/08 04:34:33;;;;;;;21.55;11.15;;;;;;;;;;5009450;28;101673;-72
2022/08/08 04:37:19;;;;;;;13.38;10.80;;;;;;;;;;4993829;28;99482;-72
2022/08/08 04:39:57;;;;;;;11.40;10.43;;;;;;;;;;4992065;28;101540;-72
2022/08/08 04:42:36;;;;;;;12.45;11.15;;;;;;;;;;4990342;28;98511;-72
2022/08/08 04:45:22;;;;;;;11.63;10.63;;;;;;;;;;4990558;28;99916;-73
2022/08/08 04:47:53;;;;;;;14.43;11.57;;;;;;;;;;4988461;28;100176;-72
2022/08/08 04:50:20;;;;;;;11.98;10.82;;;;;;;;;;4990154;28;98593;-73
2022/08/08 04:52:50;;;;;;;12.60;11.30;;;;;;;;;;4990283;28;99002;-73
2022/08/08 04:55:30;;;;;;;12.70;10.90;;;;;;;;;;4989264;28;101861;-73
2022/08/08 04:58:18;;;;;;;12.48;11.15;;;;;;;;;;4990216;28;97847;-73
2022/08/08 05:00:46;;;;;;;16.25;10.65;;;;;;;;;;4989093;28;100142;-72
2022/08/08 05:03:15;;;;;;;12.27;11.18;;;;;;;;;;4992453;28;103525;-72
2022/08/08 05:06:02;;;;;;;13.38;11.85;;;;;;;;;;5023028;28;99191;-73
2022/08/08 05:08:45;;;;;;;13.93;12.15;;;;;;;;;;4988730;28;100747;-73
2022/08/08 05:11:19;;;;;;;12.70;11.65;;;;;;;;;;5006916;28;98732;-73
2022/08/08 05:13:55;;;;;;;19.15;12.32;;;;;;;;;;5002739;28;100822;-73
2022/08/08 05:16:30;;;;;;;13.38;12.20;;;;;;;;;;4988782;28;101412;-74
2022/08/08 05:19:18;;;;;;;13.50;12.30;;;;;;;;;;4990288;28;98468;-73
2022/08/08 05:22:05;;;;;;;13.07;11.75;;;;;;;;;;4987728;28;99962;-73
2022/08/08 05:24:35;;;;;;;19.02;12.48;;;;;;;;;;4989322;28;102087;-73
2022/08/08 05:27:03;;;;;;;15.55;11.65;;;;;;;;;;4993489;28;98532;-72
2022/08/08 05:29:31;;;;;;;13.07;11.52;;;;;;;;;;4991342;28;101223;-73
2022/08/08 05:32:04;;;;;;;12.63;11.27;;;;;;;;;;5001168;28;99902;-73
2022/08/08 05:34:39;;;;;;;13.93;10.88;;;;;;;;;;4995280;28;101656;-73
2022/08/08 05:37:06;;;;;;;12.50;10.95;;;;;;;;;;4979775;28;99631;-73
2022/08/08 05:39:49;;;;;;;12.38;11.10;;;;;;;;;;5000361;28;98657;-73
2022/08/08 05:42:28;;;;;;;13.48;10.85;;;;;;;;;;5008741;28;100929;-73
2022/08/08 05:44:56;;;;;;;14.32;11.07;;;;;;;;;;4979142;28;99233;-73
2022/08/08 05:47:26;;;;;;;18.70;10.93;;;;;;;;;;4989013;28;98639;-73
2022/08/08 05:50:16;;;;;;;15.23;9.70;;;;;;;;;;5008865;28;100019;-73
2022/08/08 05:52:43;;;;;;;9.98;9.07;;;;;;;;;;4985916;28;99184;-73
2022/08/08 05:55:10;;;;;;;11.75;10.10;;;;;;;;;;4970475;28;101115;-73
2022/08/08 05:57:43;;;;;;;14.13;9.65;;;;;;;;;;4984098;28;102260;-75
2022/08/08 06:00:30;;;;;;;5.85;5.25;;;;;;;;;;5008411;28;98665;-76
2022/08/08 06:03:10;;;;;;;7.05;6.18;;;;;;;;;;4972929;28;101152;-76
2022/08/08 06:05:54;;;;;;;11.68;7.15;;;;;;;;;;4992358;28;99381;-76
2022/08/08 06:08:34;;;;;;;8.45;5.82;;;;;;;;;;4991438;28;98590;-77
2022/08/08 06:11:07;;;;;;;5.40;4.90;;;;;;;;;;4979129;28;98725;-76
2022/08/08 06:13:34;;;;;;;8.68;6.15;;;;;;;;;;4987699;28;101245;-76
2022/08/08 06:16:15;;;;;;;8.70;6.03;;;;;;;;;;4983157;28;102063;-75
2022/08/08 06:19:17;;;;;;;11.10;7.07;;;;;;;;;;4976343;28;99614;-73
2022/08/08 06:21:50;;;;;;;11.77;6.07;;;;;;;;;;4991782;28;99730;-73
2022/08/08 06:24:34;;;;;;;8.77;5.43;;;;;;;;;;4986164;28;101119;-74
2022/08/08 06:27:04;;;;;;;9.40;6.45;;;;;;;;;;4996457;28;102149;-74
2022/08/08 06:29:34;;;;;;;8.35;6.32;;;;;;;;;;4993830;28;98698;-73
2022/08/08 06:32:26;;;;;;;6.55;5.07;;;;;;;;;;4992533;28;98941;-73
2022/08/08 06:34:58;;;;;;;9.38;4.95;;;;;;;;;;4996015;28;99250;-73
2022/08/08 06:37:53;;;;;;;7.20;5.03;;;;;;;;;;5009886;28;98998;-72
2022/08/08 06:40:24;;;;;;;4.53;4.13;;;;;;;;;;4992187;28;99281;-72
2022/08/08 06:43:03;;;;;;;8.40;3.95;;;;;;;;;;4993431;28;97873;-72
2022/08/08 06:45:36;;;;;;;9.10;3.90;;;;;;;;;;4993014;28;100313;-73
2022/08/08 06:48:04;;;;;;;6.68;3.05;;;;;;;;;;4991463;28;101247;-73
2022/08/08 06:50:35;;;;;;;10.43;3.30;;;;;;;;;;4993013;28;99356;-72
2022/08/08 06:53:07;;;;;;;7.30;3.58;;;;;;;;;;4994209;28;99825;-73
2022/08/08 06:55:40;;;;;;;5.68;3.45;;;;;;;;;;4992815;28;99449;-73
2022/08/08 06:58:08;;;;;;;6.45;4.00;;;;;;;;;;4995897;28;98738;-73
2022/08/08 07:00:40;;;;;;;4.00;3.05;;;;;;;;;;4991823;28;99201;-74
2022/08/08 07:03:13;;;;;;;10.05;3.05;;;;;;;;;;4993327;28;98583;-73
2022/08/08 07:06:02;;;;;;;5.00;3.40;;;;;;;;;;5010032;28;102282;-74
2022/08/08 07:08:36;;;;;;;5.85;2.90;;;;;;;;;;4992107;28;98578;-74
2022/08/08 07:11:03;;;;;;;4.40;2.88;;;;;;;;;;4993046;28;98522;-74
2022/08/08 07:13:38;;;;;;;12.40;2.97;;;;;;;;;;4992578;28;99906;-74
2022/08/08 07:16:32;;;;;;;5.88;2.70;;;;;;;;;;4992568;28;99788;-74
2022/08/08 07:19:13;;;;;;;4.90;2.50;;;;;;;;;;4992926;28;98825;-74
2022/08/08 07:21:54;;;;;;;5.50;2.72;;;;;;;;;;4994445;28;99147;-74
2022/08/08 07:24:30;;;;;;;5.82;2.30;;;;;;;;;;4992944;28;98647;-74
2022/08/08 07:27:00;;;;;;;;;;;;;;;;;;4992951;28;100544;-74
2022/08/08 07:29:33;;;;;;;3.10;1.77;;;;;;;;;;4993266;28;99244;-72
2022/08/08 07:32:20;;;;;;;5.90;1.75;;;;;;;;;;4992963;28;98694;-72
2022/08/08 07:34:51;;;;;;;5.13;1.80;;;;;;;;;;4992655;28;98878;-72
2022/08/08 07:37:32;;;;;;;5.38;3.05;;;;;;;;;;4991527;28;99282;-73
2022/08/08 07:40:25;;;;;;;5.25;2.03;;;;;;;;;;5005122;28;98629;-73
2022/08/08 07:43:00;;;;;;;6.32;2.20;;;;;;;;;;4972072;28;101034;-73
2022/08/08 07:45:26;;;;;;;7.15;2.30;;;;;;;;;;4975115;28;99196;-73
2022/08/08 07:48:13;;;;;;;6.43;2.00;;;;;;;;;;4992017;28;101190;-73
2022/08/08 07:50:41;;;;;;;5.88;2.47;;;;;;;;;;4990638;28;99252;-73
2022/08/08 07:53:17;;;;;;;5.85;2.00;;;;;;;;;;4991965;28;98637;-73
2022/08/08 07:56:04;;;;;;;4.05;2.20;;;;;;;;;;4991899;28;100110;-73
2022/08/08 07:58:40;;;;;;;9.07;2.65;;;;;;;;;;4988780;28;99306;-73
2022/08/08 08:01:19;;;;;;;5.00;2.00;;;;;;;;;;5006051;28;97799;-73
2022/08/08 08:03:58;;;;;;;6.50;2.05;;;;;;;;;;4987371;28;99066;-73
2022/08/08 08:06:27;;;;;;;5.43;1.98;;;;;;;;;;4971543;28;101569;-73
2022/08/08 08:09:05;;;;;;;6.30;2.33;;;;;;;;;;4974216;28;99251;-74
2022/08/08 08:11:33;;;;;;;4.38;2.28;;;;;;;;;;4970776;28;101663;-74
2022/08/08 08:14:53;;;;;;;6.72;2.30;;;;;;;;;;4972174;28;98543;-74
2022/08/08 08:17:22;;;;;;;4.88;2.08;;;;;;;;;;4969481;28;99279;-74
2022/08/08 08:19:55;;;;;;;5.97;1.88;;;;;;;;;;4978016;28;102089;-74
2022/08/08 08:22:22;;;;;;;7.90;1.80;;;;;;;;;;4971195;28;98483;-75
2022/08/08 08:25:00;;;;;;;5.18;1.90;;;;;;;;;;4972489;28;99429;-74
2022/08/08 08:27:35;;;;;;;5.30;1.73;;;;;;;;;;4971414;28;99503;-74
2022/08/08 08:30:03;;;;;;;7.82;1.90;;;;;;;;;;4987919;28;98641;-74
2022/08/08 08:32:32;;;;;;;4.93;2.20;;;;;;;;;;4993514;28;101730;-74
2022/08/08 08:35:11;;;;;;;3.80;1.65;;;;;;;;;;4990506;28;100204;-74
2022/08/08 08:37:41;;;;;;;7.57;1.80;;;;;;;;;;4991745;28;100059;-73
2022/08/08 08:40:30;;;;;;;4.40;2.00;;;;;;;;;;4990790;28;101951;-76
2022/08/08 08:43:01;;;;;;;3.13;1.70;;;;;;;;;;4992526;28;98518;-76
2022/08/08 08:45:29;;;;;;;3.53;1.85;;;;;;;;;;4992318;28;101430;-73
2022/08/08 08:48:00;;;;;;;4.28;1.90;;;;;;;;;;4989980;28;100897;-74
2022/08/08 08:50:32;;;;;;;6.88;1.92;;;;;;;;;;4990699;28;98535;-74
2022/08/08 08:53:08;;;;;;;4.00;1.58;;;;;;;;;;4993620;28;101259;-74
2022/08/08 08:56:05;;;;;;;5.45;1.60;;;;;;;;;;4991050;28;98640;-74
2022/08/08 08:58:43;;;;;;;3.03;1.60;;;;;;;;;;4990478;28;99402;-74
2022/08/08 09:01:22;;;;;;;3.92;1.50;;;;;;;;;;4989022;28;102001;-74
2022/08/08 09:03:51;;;;;;;7.05;1.95;;;;;;;;;;4990259;28;98876;-73
2022/08/08 09:06:26;;;;;;;4.32;1.30;;;;;;;;;;4991650;28;101030;-74
2022/08/08 09:09:08;;;;;;;2.30;1.05;;;;;;;;;;4989725;28;102326;-73
2022/08/08 09:12:04;;;;;;;4.07;1.30;;;;;;;;;;4981806;28;98613;-73
2022/08/08 09:14:37;;;;;;;4.32;1.30;;;;;;;;;;4970271;28;102092;-73
2022/08/08 09:17:12;;;;;;;2.72;1.15;;;;;;;;;;4979610;28;99349;-73
2022/08/08 09:19:46;;;;;;;2.65;1.25;;;;;;;;;;5007132;28;101111;-72
2022/08/08 09:22:36;;;;;;;2.28;1.00;;;;;;;;;;4990608;28;98907;-73
2022/08/08 09:25:06;;;;;;;1.98;0.85;;;;;;;;;;4970787;28;98526;-73
2022/08/08 09:27:38;;;;;;;2.17;1.20;;;;;;;;;;4969532;28;103192;-72
2022/08/08 09:30:24;;;;;;;2.10;1.13;;;;;;;;;;4970081;28;101798;-73
2022/08/08 09:32:54;;;;;;;2.08;1.23;;;;;;;;;;4970556;28;98618;-73
2022/08/08 09:35:45;;;;;;;1.90;1.10;;;;;;;;;;4969059;28;101621;-73
2022/08/08 09:38:37;;;;;;;1.60;1.10;;;;;;;;;;4986570;28;101983;-73
2022/08/08 09:41:29;;;;;;;2.58;1.33;;;;;;;;;;4973699;28;98597;-73
2022/08/08 09:44:03;;;;;;;2.83;1.70;;;;;;;;;;4970782;28;99161;-73
2022/08/08 09:46:37;;;;;;;5.68;1.90;;;;;;;;;;4972028;28;97737;-73
2022/08/08 09:49:10;;;;;;;7.60;2.50;;;;;;;;;;4971550;28;98955;-73
2022/08/08 09:51:58;;;;;;;6.10;1.73;;;;;;;;;;4970420;28;100176;-75
2022/08/08 09:54:42;;;;;;;3.47;1.70;;;;;;;;;;4971680;28;99392;-72
2022/08/08 09:57:10;;;;;;;3.10;1.40;;;;;;;;;;4971023;28;101320;-73
2022/08/08 09:59:43;;;;;;;7.20;1.67;;;;;;;;;;4971153;28;100391;-73
2022/08/08 10:02:41;;;;;;;3.80;1.50;;;;;;;;;;4971374;28;100216;-72
2022/08/08 10:05:12;;;;;;;5.15;1.90;;;;;;;;;;4973547;28;100312;-72
2022/08/08 10:07:59;;;;;;;1.90;1.48;;;;;;;;;;4971191;28;99052;-73
2022/08/08 10:10:31;;;;;;;4.47;1.45;;;;;;;;;;4970372;28;100049;-73
2022/08/08 10:13:17;;;;;;;2.80;2.00;;;;;;;;;;4971503;28;99592;-72
2022/08/08 10:15:44;;;;;;;6.15;2.35;;;;;;;;;;4971716;28;98513;-72
2022/08/08 10:18:30;;;;;;;5.18;2.35;;;;;;;;;;4971207;28;99914;-72
2022/08/08 10:21:06;;;;;;;3.00;1.75;;;;;;;;;;4970977;28;100950;-72
2022/08/08 10:23:49;;;;;;;3.03;1.83;;;;;;;;;;4971291;28;98319;-72
2022/08/08 10:26:29;;;;;;;8.25;2.10;;;;;;;;;;4971650;28;99421;-72
2022/08/08 10:29:19;;;;;;;8.10;2.17;;;;;;;;;;4974051;28;99260;-73
2022/08/08 10:34:48;;;;;;;4.00;2.10;;;;;;;;;;4970759;28;99877;-72
2022/08/08 10:37:25;;;;;;;3.05;1.63;;;;;;;;;;4971260;28;98434;-73
2022/08/08 10:39:54;;;;;;;3.22;1.40;;;;;;;;;;4970030;28;99895;-73
2022/08/08 10:42:30;;;;;;;3.65;2.20;;;;;;;;;;4970587;28;100363;-73
2022/08/08 10:45:01;;;;;;;3.35;1.75;;;;;;;;;;4970644;28;98555;-73
2022/08/08 10:47:27;;;;;;;3.88;1.70;;;;;;;;;;4969781;28;100012;-73
2022/08/08 10:50:09;;;;;;;2.78;1.90;;;;;;;;;;4970496;28;100193;-75
2022/08/08 10:52:41;;;;;;;;;;;;;;;;;;4972982;28;98668;-77
2022/08/08 10:55:12;;;;;;;4.70;1.70;;;;;;;;;;4987369;28;129942;-73
2022/08/08 10:57:47;;;;;;;5.85;1.77;;;;;;;;;;4992440;28;98541;-73
2022/08/08 11:00:22;;;;;;;4.10;1.40;;;;;;;;;;4993676;28;100243;-77
2022/08/08 11:02:52;;;;;;;3.80;1.60;;;;;;;;;;4993479;28;100022;-73
2022/08/08 11:05:18;;;;;;;2.25;1.35;;;;;;;;;;4995187;28;98061;-73
2022/08/08 11:07:52;;;;;;;2.38;1.60;;;;;;;;;;4994487;28;98599;-73
2022/08/08 11:10:38;;;;;;;1.73;1.20;;;;;;;;;;4995337;28;99380;-73
2022/08/08 11:13:06;;;;;;;7.82;1.75;;;;;;;;;;4998091;28;99278;-73
2022/08/08 11:15:54;;;;;;;5.32;1.80;;;;;;;;;;4993375;28;99262;-72
2022/08/08 11:18:34;;;;;;;2.65;1.40;;;;;;;;;;4996409;28;98495;-72
2022/08/08 11:21:01;;;;;;;3.53;1.42;;;;;;;;;;4993413;28;98894;-72
2022/08/08 11:23:37;;;;;;;5.13;1.55;;;;;;;;;;4987285;28;99610;-72
2022/08/08 11:26:04;;;;;;;6.50;1.80;;;;;;;;;;4993522;28;98546;-72
2022/08/08 11:28:35;;;;;;;4.75;1.40;;;;;;;;;;4993514;28;99112;-72
2022/08/08 11:31:05;;;;;;;4.38;1.98;;;;;;;;;;4993820;28;98562;-74
2022/08/08 11:33:35;;;;;;;4.28;1.42;;;;;;;;;;4993637;28;98536;-73
2022/08/08 11:36:22;;;;;;;2.65;1.25;;;;;;;;;;4995755;28;99817;-73
2022/08/08 11:38:54;;;;;;;4.25;1.30;;;;;;;;;;4992847;28;99235;-73
2022/08/08 11:41:22;;;;;;;4.93;1.60;;;;;;;;;;4993503;28;99810;-73
2022/08/08 11:43:50;;;;;;;7.95;1.75;;;;;;;;;;4991698;28;99395;-74
2022/08/08 11:46:20;;;;;;;7.47;1.58;;;;;;;;;;4992828;28;99143;-73
2022/08/08 11:48:50;;;;;;;3.40;1.40;;;;;;;;;;4991811;28;99143;-73
2022/08/08 11:51:18;;;;;;;4.35;1.52;;;;;;;;;;4992615;28;99639;-73
2022/08/08 11:54:06;;;;;;;2.10;1.08;;;;;;;;;;4992608;28;98838;-73
2022/08/08 11:56:52;;;;;;;5.65;1.00;;;;;;;;;;4992729;28;99748;-72
2022/08/08 11:59:31;;;;;;;6.45;1.40;;;;;;;;;;4995923;28;99186;-72
2022/08/08 12:02:17;;;;;;;2.90;1.10;;;;;;;;;;4993814;28;99012;-73
2022/08/08 12:05:01;;;;;;;4.57;1.08;;;;;;;;;;4991725;28;99905;-72
2022/08/08 12:07:27;;;;;;;4.20;1.45;;;;;;;;;;4993385;28;98559;-72
2022/08/08 12:09:55;;;;;;;4.97;1.30;;;;;;;;;;4991966;28;100026;-73
2022/08/08 12:12:25;;;;;;;2.65;1.30;;;;;;;;;;4992673;28;100021;-72
2022/08/08 12:15:03;;;;;;;4.95;1.33;;;;;;;;;;4992218;28;98616;-73
2022/08/08 12:17:31;;;;;;;2.47;1.25;;;;;;;;;;4988091;28;99948;-73
2022/08/08 12:20:03;;;;;;;4.00;1.23;;;;;;;;;;4991325;28;100605;-75
2022/08/08 12:22:31;;;;;;;2.03;1.40;;;;;;;;;;5016581;28;98434;-73
2022/08/08 12:25:18;;;;;;;1.80;1.05;;;;;;;;;;4995406;28;99274;-73
2022/08/08 12:27:50;;;;;;;4.03;1.55;;;;;;;;;;4993532;28;98838;-73
2022/08/08 12:30:27;;;;;;;5.45;1.17;;;;;;;;;;4983085;28;100133;-73
2022/08/08 12:32:57;;;;;;;3.42;1.20;;;;;;;;;;4972255;28;99368;-73
2022/08/08 12:35:23;;;;;;;2.92;1.88;;;;;;;;;;4973168;28;98565;-73
2022/08/08 12:38:02;;;;;;;3.22;1.42;;;;;;;;;;4971514;28;100022;-73
2022/08/08 12:40:55;;;;;;;6.18;1.38;;;;;;;;;;4972759;28;100280;-73
2022/08/08 12:43:29;;;;;;;3.47;1.00;;;;;;;;;;4973075;28;98464;-73
2022/08/08 12:45:58;;;;;;;;;;;;;;;;;;4975564;28;99121;-73
2022/08/08 12:48:28;;;;;;;4.65;1.38;;;;;;;;;;4974328;28;116853;-73
2022/08/08 12:51:05;;;;;;;5.22;1.38;;;;;;;;;;4972731;28;98470;-72
2022/08/08 12:53:43;;;;;;;1.17;0.82;;;;;;;;;;4976076;28;99150;-73
2022/08/08 12:56:17;;;;;;;5.22;1.20;;;;;;;;;;4992156;28;99246;-73
2022/08/08 12:58:51;;;;;;;2.03;1.20;;;;;;;;;;4992099;28;99607;-72
2022/08/08 13:01:20;;;;;;;2.00;1.10;;;;;;;;;;4991980;28;100281;-72
2022/08/08 13:04:10;;;;;;;1.48;0.95;;;;;;;;;;4992558;28;98517;-72
2022/08/08 13:06:58;;;;;;;3.35;0.82;;;;;;;;;;4994376;28;99788;-72
2022/08/08 13:09:26;;;;;;;;;;;;;;;;;;4992881;28;98404;-72
2022/08/08 13:11:53;;;;;;;3.20;1.20;;;;;;;;;;4992793;28;129722;-72
2022/08/08 13:14:48;;;;;;;2.03;0.93;;;;;;;;;;4991852;28;99367;-73
2022/08/08 13:17:21;;;;;;;1.38;1.00;;;;;;;;;;4992146;28;98535;-73
2022/08/08 13:20:15;;;;;;;3.22;1.08;;;;;;;;;;4990340;28;99991;-73
2022/08/08 13:22:44;;;;;;;1.20;0.80;;;;;;;;;;4990666;28;102220;-73
2022/08/08 13:25:15;;;;;;;4.30;1.30;;;;;;;;;;4991825;28;98587;-73
2022/08/08 13:27:42;;;;;;;2.38;1.00;;;;;;;;;;4991751;27;99246;-73
2022/08/08 13:30:09;;;;;;;2.67;1.20;;;;;;;;;;4995023;28;99788;-73
2022/08/08 13:32:36;;;;;;;1.98;0.80;;;;;;;;;;4991735;28;98937;-73
2022/08/08 13:35:06;;;;;;;1.35;0.82;;;;;;;;;;4982611;28;100330;-73
2022/08/08 13:37:49;;;;;;;1.52;0.90;;;;;;;;;;4991344;28;98959;-73
2022/08/08 13:40:33;;;;;;;1.90;1.00;;;;;;;;;;4991647;28;100177;-73
2022/08/08 13:43:00;;;;;;;2.33;1.08;;;;;;;;;;4988613;28;100378;-73
2022/08/08 13:45:29;;;;;;;2.47;1.17;;;;;;;;;;4977873;28;100207;-73
2022/08/08 13:48:00;;;;;;;1.75;0.80;;;;;;;;;;4973127;28;100178;-72
2022/08/08 13:50:26;;;;;;;1.65;0.95;;;;;;;;;;4973434;28;100164;-73
2022/08/08 13:53:08;;;;;;;2.85;1.23;;;;;;;;;;4976089;28;100207;-73
2022/08/08 13:56:00;;;;;;;5.35;1.02;;;;;;;;;;4975361;28;100076;-73
2022/08/08 13:58:28;;;;;;;5.22;1.10;;;;;;;;;;4981793;28;98626;-73
2022/08/08 14:00:55;;;;;;;4.15;0.80;;;;;;;;;;4970550;28;100358;-72
2022/08/08 14:03:27;;;;;;;3.85;1.00;;;;;;;;;;4971384;28;99621;-73
2022/08/08 14:06:14;;;;;;;4.18;1.10;;;;;;;;;;4971670;28;97755;-73
2022/08/08 14:08:58;;;;;;;2.33;0.98;;;;;;;;;;4981290;28;99193;-73
2022/08/08 14:11:25;;;;;;;7.00;1.05;;;;;;;;;;4969999;28;99318;-73
2022/08/08 14:13:54;;;;;;;2.60;1.00;;;;;;;;;;4969780;28;99401;-73
2022/08/08 14:16:24;;;;;;;2.75;1.08;;;;;;;;;;4991748;28;99563;-73
2022/08/08 14:18:57;;;;;;;5.50;1.30;;;;;;;;;;4971334;28;98685;-73
2022/08/08 14:21:40;;;;;;;4.28;1.25;;;;;;;;;;4977133;28;98499;-73
2022/08/08 14:24:30;;;;;;;2.78;0.98;;;;;;;;;;4977831;28;100431;-73
2022/08/08 14:26:56;;;;;;;3.90;1.42;;;;;;;;;;4970895;28;100397;-73
2022/08/08 14:29:23;;;;;;;3.53;1.38;;;;;;;;;;4971694;28;98723;-73
2022/08/08 14:31:55;;;;;;;1.55;1.20;;;;;;;;;;4975024;28;98438;-73
2022/08/08 14:34:36;;;;;;;1.77;1.15;;;;;;;;;;4979533;28;98543;-73
2022/08/08 14:37:05;;;;;;;1.10;0.98;;;;;;;;;;4983867;28;99174;-73
2022/08/08 14:39:39;;;;;;;2.28;1.10;;;;;;;;;;4977073;28;99394;-73
2022/08/08 14:42:14;;;;;;;1.33;0.85;;;;;;;;;;4974329;28;99845;-73
2022/08/08 14:44:52;;;;;;;2.55;1.60;;;;;;;;;;4972807;28;99306;-73
2022/08/08 14:47:18;;;;;;;2.10;1.42;;;;;;;;;;4978692;28;98577;-73
2022/08/08 14:49:47;;;;;;;1.88;1.00;;;;;;;;;;4978455;28;99133;-73
2022/08/08 14:52:46;;;;;;;3.42;1.05;;;;;;;;;;4973736;28;99256;-72
2022/08/08 14:55:13;;;;;;;2.70;1.60;;;;;;;;;;4991000;27;98761;-72
2022/08/08 14:57:42;;;;;;;1.48;1.30;;;;;;;;;;4978176;28;99112;-72
2022/08/08 15:00:30;;;;;;;2.67;1.20;;;;;;;;;;4974350;28;99392;-72
2022/08/08 15:03:00;;;;;;;2.45;1.25;;;;;;;;;;4977176;28;98525;-73
2022/08/08 15:05:42;;;;;;;3.65;1.08;;;;;;;;;;4985186;28;101177;-73
2022/08/08 15:08:25;;;;;;;4.40;1.20;;;;;;;;;;4973852;28;98615;-73
2022/08/08 15:11:01;;;;;;;1.25;1.15;;;;;;;;;;4975071;28;99087;-72
2022/08/08 15:13:29;;;;;;;3.15;1.58;;;;;;;;;;4972737;28;100431;-73
2022/08/08 15:16:07;;;;;;;3.97;1.30;;;;;;;;;;4974718;28;98566;-72
2022/08/08 15:18:39;;;;;;;3.58;0.98;;;;;;;;;;4981140;28;101496;-73
2022/08/08 15:21:15;;;;;;;1.70;1.13;;;;;;;;;;4978730;28;100095;-73
2022/08/08 15:23:42;;;;;;;1.70;0.90;;;;;;;;;;4997364;28;97800;-74
2022/08/08 15:26:08;;;;;;;1.10;0.80;;;;;;;;;;4993600;28;100328;-74
2022/08/08 15:28:38;;;;;;;1.25;0.80;;;;;;;;;;4976660;28;100332;-74
2022/08/08 15:31:04;;;;;;;1.08;0.80;;;;;;;;;;4983363;28;100532;-74
2022/08/08 15:33:31;;;;;;;4.30;1.00;;;;;;;;;;4992851;28;99560;-76
2022/08/08 15:36:04;;;;;;;3.28;1.15;;;;;;;;;;4993102;28;98429;-73
2022/08/08 15:38:31;;;;;;;1.85;0.98;;;;;;;;;;4994816;28;99137;-74
2022/08/08 15:40:58;;;;;;;1.55;1.00;;;;;;;;;;4984087;28;100170;-76
2022/08/08 15:43:25;;;;;;;1.92;1.15;;;;;;;;;;4968512;28;100872;-72
2022/08/08 15:46:01;;;;;;;4.53;0.98;;;;;;;;;;4978621;28;99853;-72
2022/08/08 15:48:28;;;;;;;5.50;1.13;;;;;;;;;;4977094;28;97751;-74